Meteo Giornale » Osservazioni meteo Australia » Avalon Avalon
ore: 05:30 - Osservazioni Meteo Avalon Avalon
Lat. 38° 2' S Lon. 144° 29' E Alt. 8 metri s.l.m.
7 °C
Sereno
Temp. 24 Ore
4 °C
15 °C
Nord
0 Km/h
Dew point 6 °C
Umidità 93 %
Visibilità 10 Km
Il sole sorge alle ore 06:44
Il sole tramonta alle ore 18:00
| Data e Ora | Cielo e Fenomeni | T °C | DP °C | Um. % | Pres. hPa | Vis. km | Vento km/h | |
|---|---|---|---|---|---|---|---|---|
| Oggi h: 05:30 | Sereno | 7 | 6 | 93 | 1020 | 10 | N 0 | |
| Oggi h: 05:00 | Sereno | 8 | 7 | 93 | 1020 | 10 | N 7.4 | |
| Oggi h: 04:30 | Sereno | 9 | 7 | 87 | 1020 | 10 | N 5.5 | |
| Oggi h: 04:00 | Sereno | 10 | 8 | 87 | 1021 | 10 | N 16.7 | |
| Oggi h: 03:30 | Sereno | 6 | 5 | 93 | 1021 | 10 | N 9.3 | |
| Oggi h: 03:00 | Sereno | 6 | 5 | 93 | 1021 | 10 | N/NO 7.4 | |
| Oggi h: 02:54 | Sereno | 6 | 5 | 93 | 1022 | 10 | N 9.3 | |
| Oggi h: 02:43 | Pioggia | 5 | 4 | 93 | 1022 | 2 | NE 7.4 | |
| Oggi h: 02:30 | Pioggia | 5 | 4 | 93 | 1022 | 0.35 | N 0 | |
| Oggi h: 02:01 | Foschia | 5 | 4 | 93 | 1023 | 1 | N 0 | |
| Oggi h: 02:00 | Foschia | 4 | 3 | 93 | 1023 | 1 | N 0 | |
| Oggi h: 01:47 | Foschia | 6 | 5 | 93 | 1023 | 4 | N 0 | |
| Oggi h: 01:36 | Sereno | 6 | 5 | 93 | 1023 | 10 | N 0 | |
| Oggi h: 01:30 | Pioggia | 6 | 5 | 93 | 1023 | 9 | N 0 | |
| Oggi h: 01:19 | Sereno | 6 | 6 | 100 | 1023 | 6 | N 0 | |
| Oggi h: 01:00 | Sereno | 5 | 5 | 100 | 1023 | 10 | N 0 | |
| Oggi h: 00:30 | Sereno | 5 | 4 | 93 | 1024 | 10 | N 0 | |
| Oggi h: 00:00 | Sereno | 7 | 6 | 93 | 1024 | 10 | N 3.7 | |
| Ieri h: 23:30 | Sereno | 8 | 6 | 87 | 1024 | 8 | N 3.7 | |
| Ieri h: 23:00 | Sereno | 10 | 8 | 87 | 1025 | 10 | N/NE 9.3 | |
| Ieri h: 22:30 | Sereno | 11 | 8 | 81 | 1025 | 10 | N 13 | |
| Ieri h: 22:00 | Sereno | 11 | 8 | 81 | 1026 | 10 | N 11.1 | |
| Ieri h: 21:30 | Sereno | 11 | 8 | 81 | 1026 | 10 | N/NE 11.1 | |
| Ieri h: 21:00 | Sereno | 9 | 8 | 93 | 1026 | 10 | N/NE 7.4 | |
| Ieri h: 20:30 | Sereno | 9 | 7 | 87 | 1026 | 10 | N 5.5 | |
| Ieri h: 20:00 | Sereno | 10 | 8 | 87 | 1026 | 10 | N/NE 7.4 | |
| Ieri h: 19:30 | Sereno | 9 | 6 | 81 | 1027 | 10 | N 5.5 | |
| Ieri h: 19:00 | Sereno | 10 | 8 | 87 | 1027 | 10 | N 5.5 | |
| Ieri h: 18:30 | Sereno | 12 | 9 | 81 | 1027 | 10 | E/NE 9.3 | |
| Ieri h: 18:00 | Sereno | 11 | 8 | 81 | 1027 | 10 | E/NE 9.3 | |
| Ieri h: 17:30 | Sereno | 13 | 9 | 76 | 1027 | 10 | E/NE 9.3 | |
| Ieri h: 17:00 | Sereno | 14 | 9 | 71 | 1027 | 10 | NE 9.3 | |
| Ieri h: 16:30 | Sereno | 14 | 9 | 71 | 1027 | 10 | E/NE 13 | |
| Ieri h: 16:00 | Sereno | 15 | 10 | 72 | 1027 | 10 | E 9.3 | |
| Ieri h: 15:30 | Sereno | 15 | 10 | 72 | 1028 | 10 | E 9.3 | |
| Ieri h: 15:00 | Sereno | 14 | 10 | 76 | 1028 | 10 | E/SE 11.1 | |
| Ieri h: 14:30 | Sereno | 14 | 9 | 71 | 1028 | 10 | E/SE 13 | |
| Ieri h: 14:00 | Sereno | 14 | 10 | 76 | 1029 | 10 | E/SE 13 | |
| Ieri h: 13:30 | Sereno | 13 | 9 | 76 | 1030 | 10 | E 13 | |
| Ieri h: 13:00 | Sereno | 14 | 9 | 71 | 1030 | 10 | E/SE 9.3 | |
| Ieri h: 12:30 | Sereno | 13 | 8 | 71 | 1031 | 10 | S 7.4 | |
| Ieri h: 12:00 | Sereno | 13 | 8 | 71 | 1031 | 10 | N 5.5 | |
| Ieri h: 11:37 | Poco Nuvoloso | 13 | 8 | 71 | 1032 | 10 | N 0 | |
| Ieri h: 11:30 | Nuvoloso | 12 | 8 | 76 | 1032 | 10 | N 3.7 | |
| Ieri h: 11:00 | Coperto | 11 | 7 | 76 | 1032 | 10 | N 5.5 | |
| Ieri h: 10:30 | Coperto | 10 | 7 | 81 | 1032 | 10 | O/SO 9.3 | |
| Ieri h: 10:00 | Coperto | 9 | 7 | 87 | 1032 | 10 | O/NO 13 | |
| Ieri h: 09:30 | Coperto | 9 | 7 | 87 | 1032 | 10 | NO 13 | |
| Ieri h: 09:00 | Coperto | 9 | 7 | 87 | 1032 | 10 | NO 13 | |
| Ieri h: 08:30 | Coperto | 9 | 7 | 87 | 1032 | 10 | NO 11.1 | |
| Ieri h: 08:00 | Coperto | 9 | 7 | 87 | 1032 | 10 | O/NO 13 | |
| Ieri h: 07:30 | Coperto | 9 | 7 | 87 | 1032 | 10 | O/NO 13 | |
| Ieri h: 07:00 | Coperto | 9 | 7 | 87 | 1032 | 10 | O/NO 11.1 | |
| Ieri h: 06:30 | Coperto | 9 | 7 | 87 | 1032 | 10 | O/NO 11.1 | |
| Ieri h: 06:00 | Coperto | 9 | 7 | 87 | 1032 | 10 | NO 13 | |



